sensor_id;sensor_type;location;lat;lon;timestamp;pressure;altitude;pressure_sealevel;temperature;humidity
9784;BME280;4931;44.874;-1.092;2024-01-30T00:01:18;102769.47;;;10.74;100.00
9784;BME280;4931;44.874;-1.092;2024-01-30T00:03:44;102754.63;;;10.75;100.00
9784;BME280;4931;44.874;-1.092;2024-01-30T00:06:09;102755.59;;;10.69;100.00
9784;BME280;4931;44.874;-1.092;2024-01-30T00:08:35;102754.09;;;10.55;100.00
9784;BME280;4931;44.874;-1.092;2024-01-30T00:11:00;102754.84;;;10.62;100.00
9784;BME280;4931;44.874;-1.092;2024-01-30T00:13:26;102764.88;;;10.68;100.00
9784;BME280;4931;44.874;-1.092;2024-01-30T00:15:52;102764.59;;;10.58;100.00
9784;BME280;4931;44.874;-1.092;2024-01-30T00:18:17;102758.28;;;10.57;100.00
9784;BME280;4931;44.874;-1.092;2024-01-30T00:20:44;102769.50;;;10.56;100.00
9784;BME280;4931;44.874;-1.092;2024-01-30T00:23:09;102761.63;;;10.59;100.00
9784;BME280;4931;44.874;-1.092;2024-01-30T00:25:35;102751.94;;;10.57;100.00
9784;BME280;4931;44.874;-1.092;2024-01-30T00:28:00;102749.84;;;10.40;100.00
9784;BME280;4931;44.874;-1.092;2024-01-30T00:30:26;102754.75;;;10.32;100.00
9784;BME280;4931;44.874;-1.092;2024-01-30T00:32:51;102763.81;;;10.32;100.00
9784;BME280;4931;44.874;-1.092;2024-01-30T00:35:17;102770.84;;;10.28;100.00
9784;BME280;4931;44.874;-1.092;2024-01-30T00:37:42;102770.56;;;10.36;100.00
9784;BME280;4931;44.874;-1.092;2024-01-30T00:40:08;102776.88;;;10.37;100.00
9784;BME280;4931;44.874;-1.092;2024-01-30T00:42:35;102782.16;;;10.38;100.00
9784;BME280;4931;44.874;-1.092;2024-01-30T00:45:01;102780.91;;;10.34;100.00
9784;BME280;4931;44.874;-1.092;2024-01-30T00:47:26;102786.00;;;10.30;100.00
9784;BME280;4931;44.874;-1.092;2024-01-30T00:49:52;102781.06;;;10.21;100.00
9784;BME280;4931;44.874;-1.092;2024-01-30T00:52:17;102781.97;;;10.14;100.00
9784;BME280;4931;44.874;-1.092;2024-01-30T00:54:43;102783.19;;;10.19;100.00
9784;BME280;4931;44.874;-1.092;2024-01-30T00:57:09;102781.22;;;10.07;100.00
9784;BME280;4931;44.874;-1.092;2024-01-30T00:59:34;102781.72;;;10.16;100.00
9784;BME280;4931;44.874;-1.092;2024-01-30T01:02:00;102773.72;;;10.14;100.00
9784;BME280;4931;44.874;-1.092;2024-01-30T01:04:25;102772.66;;;10.16;100.00
9784;BME280;4931;44.874;-1.092;2024-01-30T01:06:52;102776.00;;;10.18;100.00
9784;BME280;4931;44.874;-1.092;2024-01-30T01:09:17;102772.97;;;10.07;100.00
9784;BME280;4931;44.874;-1.092;2024-01-30T01:11:43;102785.59;;;10.08;100.00
9784;BME280;4931;44.874;-1.092;2024-01-30T01:14:08;102776.16;;;10.04;100.00
9784;BME280;4931;44.874;-1.092;2024-01-30T01:16:34;102782.84;;;10.08;100.00
9784;BME280;4931;44.874;-1.092;2024-01-30T01:18:59;102782.25;;;10.06;100.00
9784;BME280;4931;44.874;-1.092;2024-01-30T01:21:25;102784.84;;;10.01;100.00
9784;BME280;4931;44.874;-1.092;2024-01-30T01:23:51;102779.97;;;10.03;100.00
9784;BME280;4931;44.874;-1.092;2024-01-30T01:26:16;102782.09;;;10.01;100.00
9784;BME280;4931;44.874;-1.092;2024-01-30T01:28:41;102786.81;;;9.94;100.00
9784;BME280;4931;44.874;-1.092;2024-01-30T01:31:07;102788.06;;;9.98;100.00
9784;BME280;4931;44.874;-1.092;2024-01-30T01:33:33;102783.78;;;10.02;100.00
9784;BME280;4931;44.874;-1.092;2024-01-30T01:36:00;102789.63;;;10.06;100.00
9784;BME280;4931;44.874;-1.092;2024-01-30T01:38:28;102777.84;;;10.05;100.00
9784;BME280;4931;44.874;-1.092;2024-01-30T01:40:53;102787.13;;;10.04;100.00
9784;BME280;4931;44.874;-1.092;2024-01-30T01:43:18;102781.03;;;10.02;100.00
9784;BME280;4931;44.874;-1.092;2024-01-30T01:45:45;102784.69;;;9.96;100.00
9784;BME280;4931;44.874;-1.092;2024-01-30T01:48:11;102781.38;;;9.87;100.00
9784;BME280;4931;44.874;-1.092;2024-01-30T01:50:38;102774.69;;;9.83;100.00
9784;BME280;4931;44.874;-1.092;2024-01-30T01:53:05;102786.88;;;9.87;100.00
9784;BME280;4931;44.874;-1.092;2024-01-30T01:55:32;102789.38;;;9.89;100.00
9784;BME280;4931;44.874;-1.092;2024-01-30T01:57:58;102789.78;;;9.92;100.00
9784;BME280;4931;44.874;-1.092;2024-01-30T02:00:24;102795.72;;;9.89;100.00
9784;BME280;4931;44.874;-1.092;2024-01-30T02:02:50;102792.00;;;9.84;100.00
9784;BME280;4931;44.874;-1.092;2024-01-30T02:05:17;102792.03;;;9.77;100.00
9784;BME280;4931;44.874;-1.092;2024-01-30T02:07:43;102801.28;;;9.83;100.00
9784;BME280;4931;44.874;-1.092;2024-01-30T02:10:09;102803.38;;;9.80;100.00
9784;BME280;4931;44.874;-1.092;2024-01-30T02:12:37;102796.84;;;9.82;100.00
9784;BME280;4931;44.874;-1.092;2024-01-30T02:15:04;102803.38;;;9.80;100.00
9784;BME280;4931;44.874;-1.092;2024-01-30T02:17:30;102802.78;;;9.78;100.00
9784;BME280;4931;44.874;-1.092;2024-01-30T02:19:56;102800.47;;;9.75;100.00
9784;BME280;4931;44.874;-1.092;2024-01-30T02:22:22;102800.03;;;9.78;100.00
9784;BME280;4931;44.874;-1.092;2024-01-30T02:24:47;102795.44;;;9.72;100.00
9784;BME280;4931;44.874;-1.092;2024-01-30T02:27:14;102807.19;;;9.79;100.00
9784;BME280;4931;44.874;-1.092;2024-01-30T02:29:39;102810.22;;;9.71;100.00
9784;BME280;4931;44.874;-1.092;2024-01-30T02:32:05;102813.75;;;9.78;100.00
9784;BME280;4931;44.874;-1.092;2024-01-30T02:34:31;102807.19;;;9.79;100.00
9784;BME280;4931;44.874;-1.092;2024-01-30T02:36:56;102818.59;;;9.76;100.00
9784;BME280;4931;44.874;-1.092;2024-01-30T02:39:22;102809.31;;;9.77;100.00
9784;BME280;4931;44.874;-1.092;2024-01-30T02:41:47;102809.31;;;9.77;100.00
9784;BME280;4931;44.874;-1.092;2024-01-30T02:44:13;102806.00;;;9.69;100.00
9784;BME280;4931;44.874;-1.092;2024-01-30T02:46:38;102819.88;;;9.74;100.00
9784;BME280;4931;44.874;-1.092;2024-01-30T02:49:04;102820.72;;;9.74;100.00
9784;BME280;4931;44.874;-1.092;2024-01-30T02:51:29;102812.50;;;9.74;100.00
9784;BME280;4931;44.874;-1.092;2024-01-30T02:53:54;102818.88;;;9.68;100.00
9784;BME280;4931;44.874;-1.092;2024-01-30T02:56:20;102814.47;;;9.67;100.00
9784;BME280;4931;44.874;-1.092;2024-01-30T02:58:45;102830.91;;;9.67;100.00
9784;BME280;4931;44.874;-1.092;2024-01-30T03:01:11;102837.72;;;9.58;100.00
9784;BME280;4931;44.874;-1.092;2024-01-30T03:03:36;102829.69;;;9.63;100.00
9784;BME280;4931;44.874;-1.092;2024-01-30T03:06:02;102828.81;;;9.62;100.00
9784;BME280;4931;44.874;-1.092;2024-01-30T03:08:27;102834.09;;;9.64;100.00
9784;BME280;4931;44.874;-1.092;2024-01-30T03:10:53;102834.28;;;9.69;100.00
9784;BME280;4931;44.874;-1.092;2024-01-30T03:13:18;102823.75;;;9.66;100.00
9784;BME280;4931;44.874;-1.092;2024-01-30T03:15:44;102818.66;;;9.70;100.00
9784;BME280;4931;44.874;-1.092;2024-01-30T03:18:10;102818.25;;;9.66;100.00
9784;BME280;4931;44.874;-1.092;2024-01-30T03:20:35;102823.81;;;9.59;100.00
9784;BME280;4931;44.874;-1.092;2024-01-30T03:23:00;102820.88;;;9.54;100.00
9784;BME280;4931;44.874;-1.092;2024-01-30T03:25:26;102820.06;;;9.54;100.00
9784;BME280;4931;44.874;-1.092;2024-01-30T03:27:51;102827.81;;;9.57;100.00
9784;BME280;4931;44.874;-1.092;2024-01-30T03:30:17;102832.72;;;9.55;100.00
9784;BME280;4931;44.874;-1.092;2024-01-30T03:32:43;102832.72;;;9.55;100.00
9784;BME280;4931;44.874;-1.092;2024-01-30T03:35:09;102822.63;;;9.49;100.00
9784;BME280;4931;44.874;-1.092;2024-01-30T03:37:34;102837.78;;;9.51;100.00
9784;BME280;4931;44.874;-1.092;2024-01-30T03:40:01;102848.34;;;9.47;100.00
9784;BME280;4931;44.874;-1.092;2024-01-30T03:42:27;102857.97;;;9.57;100.00
9784;BME280;4931;44.874;-1.092;2024-01-30T03:44:53;102851.44;;;9.58;100.00
9784;BME280;4931;44.874;-1.092;2024-01-30T03:47:19;102853.34;;;9.57;100.00
9784;BME280;4931;44.874;-1.092;2024-01-30T03:49:45;102853.34;;;9.51;100.00
9784;BME280;4931;44.874;-1.092;2024-01-30T03:52:10;102852.31;;;9.52;100.00
9784;BME280;4931;44.874;-1.092;2024-01-30T03:54:35;102848.56;;;9.46;100.00
9784;BME280;4931;44.874;-1.092;2024-01-30T03:57:01;102850.72;;;9.37;100.00
9784;BME280;4931;44.874;-1.092;2024-01-30T03:59:27;102873.31;;;9.33;100.00
9784;BME280;4931;44.874;-1.092;2024-01-30T04:01:55;102864.50;;;9.24;100.00
9784;BME280;4931;44.874;-1.092;2024-01-30T04:04:21;102884.63;;;9.36;100.00
9784;BME280;4931;44.874;-1.092;2024-01-30T04:06:46;102874.34;;;9.32;100.00
9784;BME280;4931;44.874;-1.092;2024-01-30T04:09:12;102875.38;;;9.37;100.00
9784;BME280;4931;44.874;-1.092;2024-01-30T04:11:39;102867.84;;;9.33;100.00
9784;BME280;4931;44.874;-1.092;2024-01-30T04:14:05;102856.88;;;9.33;100.00
9784;BME280;4931;44.874;-1.092;2024-01-30T04:16:30;102866.97;;;9.32;100.00
9784;BME280;4931;44.874;-1.092;2024-01-30T04:18:56;102865.72;;;9.28;100.00
9784;BME280;4931;44.874;-1.092;2024-01-30T04:21:21;102862.41;;;9.26;100.00
9784;BME280;4931;44.874;-1.092;2024-01-30T04:23:48;102857.34;;;9.23;100.00
9784;BME280;4931;44.874;-1.092;2024-01-30T04:26:14;102851.84;;;9.23;100.00
9784;BME280;4931;44.874;-1.092;2024-01-30T04:28:41;102850.44;;;9.13;100.00
9784;BME280;4931;44.874;-1.092;2024-01-30T04:31:07;102846.44;;;9.16;100.00
9784;BME280;4931;44.874;-1.092;2024-01-30T04:33:32;102849.59;;;9.13;100.00
9784;BME280;4931;44.874;-1.092;2024-01-30T04:35:57;102856.97;;;9.12;100.00
9784;BME280;4931;44.874;-1.092;2024-01-30T04:38:23;102850.66;;;9.12;100.00
9784;BME280;4931;44.874;-1.092;2024-01-30T04:40:48;102862.84;;;9.16;100.00
9784;BME280;4931;44.874;-1.092;2024-01-30T04:43:14;102857.41;;;9.09;100.00
9784;BME280;4931;44.874;-1.092;2024-01-30T04:45:41;102862.09;;;8.95;100.00
9784;BME280;4931;44.874;-1.092;2024-01-30T04:48:06;102857.53;;;8.89;100.00
9784;BME280;4931;44.874;-1.092;2024-01-30T04:50:32;102872.22;;;8.95;100.00
9784;BME280;4931;44.874;-1.092;2024-01-30T04:52:57;102877.09;;;8.86;100.00
9784;BME280;4931;44.874;-1.092;2024-01-30T04:55:23;102884.91;;;8.83;100.00
9784;BME280;4931;44.874;-1.092;2024-01-30T04:57:49;102888.66;;;8.95;100.00
9784;BME280;4931;44.874;-1.092;2024-01-30T05:00:14;102885.94;;;8.88;100.00
9784;BME280;4931;44.874;-1.092;2024-01-30T05:02:40;102889.09;;;8.92;100.00
9784;BME280;4931;44.874;-1.092;2024-01-30T05:05:06;102892.06;;;8.84;100.00
9784;BME280;4931;44.874;-1.092;2024-01-30T05:07:31;102883.63;;;8.92;100.00
9784;BME280;4931;44.874;-1.092;2024-01-30T05:09:57;102878.56;;;8.89;100.00
9784;BME280;4931;44.874;-1.092;2024-01-30T05:12:22;102878.19;;;8.85;100.00
9784;BME280;4931;44.874;-1.092;2024-01-30T05:14:47;102881.53;;;8.80;100.00
9784;BME280;4931;44.874;-1.092;2024-01-30T05:17:13;102896.91;;;8.82;100.00
9784;BME280;4931;44.874;-1.092;2024-01-30T05:19:38;102890.41;;;8.83;100.00
9784;BME280;4931;44.874;-1.092;2024-01-30T05:22:04;102883.22;;;8.82;100.00
9784;BME280;4931;44.874;-1.092;2024-01-30T05:24:29;102887.06;;;8.67;100.00
9784;BME280;4931;44.874;-1.092;2024-01-30T05:26:55;102895.09;;;8.62;100.00
9784;BME280;4931;44.874;-1.092;2024-01-30T05:29:20;102907.50;;;8.58;100.00
9784;BME280;4931;44.874;-1.092;2024-01-30T05:31:46;102918.41;;;8.71;100.00
9784;BME280;4931;44.874;-1.092;2024-01-30T05:34:11;102916.53;;;8.58;100.00
9784;BME280;4931;44.874;-1.092;2024-01-30T05:36:37;102914.88;;;8.51;100.00
9784;BME280;4931;44.874;-1.092;2024-01-30T05:39:02;102924.13;;;8.63;100.00
9784;BME280;4931;44.874;-1.092;2024-01-30T05:41:28;102930.22;;;8.65;100.00
9784;BME280;4931;44.874;-1.092;2024-01-30T05:43:53;102924.09;;;8.76;100.00
9784;BME280;4931;44.874;-1.092;2024-01-30T05:46:19;102922.84;;;8.72;100.00
9784;BME280;4931;44.874;-1.092;2024-01-30T05:48:44;102913.97;;;8.77;100.00
9784;BME280;4931;44.874;-1.092;2024-01-30T05:51:09;102923.25;;;8.69;100.00
9784;BME280;4931;44.874;-1.092;2024-01-30T05:53:35;102922.84;;;8.72;100.00
9784;BME280;4931;44.874;-1.092;2024-01-30T05:56:02;102925.38;;;8.67;100.00
9784;BME280;4931;44.874;-1.092;2024-01-30T05:58:28;102916.53;;;8.65;100.00
9784;BME280;4931;44.874;-1.092;2024-01-30T06:00:53;102927.91;;;8.62;100.00
9784;BME280;4931;44.874;-1.092;2024-01-30T06:03:18;102923.50;;;8.61;100.00
9784;BME280;4931;44.874;-1.092;2024-01-30T06:05:44;102916.13;;;8.68;100.00
9784;BME280;4931;44.874;-1.092;2024-01-30T06:08:10;102919.03;;;8.67;100.00
9784;BME280;4931;44.874;-1.092;2024-01-30T06:10:35;102913.16;;;8.43;100.00
9784;BME280;4931;44.874;-1.092;2024-01-30T06:13:01;102913.16;;;8.43;100.00
9784;BME280;4931;44.874;-1.092;2024-01-30T06:15:27;102919.50;;;8.43;100.00
9784;BME280;4931;44.874;-1.092;2024-01-30T06:17:52;102914.44;;;8.40;100.00
9784;BME280;4931;44.874;-1.092;2024-01-30T06:20:17;102922.88;;;8.32;100.00
9784;BME280;4931;44.874;-1.092;2024-01-30T06:22:43;102937.19;;;8.34;100.00
9784;BME280;4931;44.874;-1.092;2024-01-30T06:25:08;102940.75;;;8.41;100.00
9784;BME280;4931;44.874;-1.092;2024-01-30T06:27:35;102940.75;;;8.41;100.00
9784;BME280;4931;44.874;-1.092;2024-01-30T06:30:01;102940.34;;;8.44;100.00
9784;BME280;4931;44.874;-1.092;2024-01-30T06:32:26;102937.38;;;8.39;100.00
9784;BME280;4931;44.874;-1.092;2024-01-30T06:34:53;102936.75;;;8.44;100.00
9784;BME280;4931;44.874;-1.092;2024-01-30T06:37:19;102932.97;;;8.45;100.00
9784;BME280;4931;44.874;-1.092;2024-01-30T06:39:44;102927.50;;;8.38;100.00
9784;BME280;4931;44.874;-1.092;2024-01-30T06:42:10;102938.22;;;8.33;100.00
9784;BME280;4931;44.874;-1.092;2024-01-30T06:44:37;102941.19;;;8.31;100.00
9784;BME280;4931;44.874;-1.092;2024-01-30T06:47:02;102934.63;;;8.26;100.00
9784;BME280;4931;44.874;-1.092;2024-01-30T06:49:27;102942.44;;;8.22;100.00
9784;BME280;4931;44.874;-1.092;2024-01-30T06:51:53;102939.28;;;8.19;100.00
9784;BME280;4931;44.874;-1.092;2024-01-30T06:54:18;102944.31;;;8.08;100.00
9784;BME280;4931;44.874;-1.092;2024-01-30T06:56:44;102960.72;;;8.08;100.00
9784;BME280;4931;44.874;-1.092;2024-01-30T06:59:09;102969.56;;;8.17;100.00
9784;BME280;4931;44.874;-1.092;2024-01-30T07:01:35;102964.94;;;8.11;100.00
9784;BME280;4931;44.874;-1.092;2024-01-30T07:04:00;102966.19;;;8.15;100.00
9784;BME280;4931;44.874;-1.092;2024-01-30T07:06:25;102974.41;;;8.08;100.00
9784;BME280;4931;44.874;-1.092;2024-01-30T07:08:51;102979.88;;;8.08;100.00
9784;BME280;4931;44.874;-1.092;2024-01-30T07:11:20;102969.16;;;8.07;100.00
9784;BME280;4931;44.874;-1.092;2024-01-30T07:13:47;102974.81;;;8.05;100.00
9784;BME280;4931;44.874;-1.092;2024-01-30T07:16:14;102973.75;;;8.06;100.00
9784;BME280;4931;44.874;-1.092;2024-01-30T07:18:39;102973.75;;;8.06;100.00
9784;BME280;4931;44.874;-1.092;2024-01-30T07:21:04;102973.34;;;8.09;100.00
9784;BME280;4931;44.874;-1.092;2024-01-30T07:23:30;102972.94;;;8.12;100.00
9784;BME280;4931;44.874;-1.092;2024-01-30T07:25:55;102969.34;;;8.05;100.00
9784;BME280;4931;44.874;-1.092;2024-01-30T07:28:21;102978.81;;;7.96;100.00
9784;BME280;4931;44.874;-1.092;2024-01-30T07:30:46;102985.53;;;8.00;100.00
9784;BME280;4931;44.874;-1.092;2024-01-30T07:33:13;102990.16;;;8.06;100.00
9784;BME280;4931;44.874;-1.092;2024-01-30T07:35:39;102981.13;;;8.12;100.00
9784;BME280;4931;44.874;-1.092;2024-01-30T07:38:04;102979.66;;;8.17;100.00
9784;BME280;4931;44.874;-1.092;2024-01-30T07:40:30;102982.16;;;8.11;100.00
9784;BME280;4931;44.874;-1.092;2024-01-30T07:42:55;102983.88;;;8.12;100.00
9784;BME280;4931;44.874;-1.092;2024-01-30T07:45:21;102977.34;;;8.13;100.00
9784;BME280;4931;44.874;-1.092;2024-01-30T07:47:51;102981.34;;;8.11;100.00
9784;BME280;4931;44.874;-1.092;2024-01-30T07:50:17;102976.69;;;8.05;100.00
9784;BME280;4931;44.874;-1.092;2024-01-30T07:52:43;102967.44;;;7.99;100.00
9784;BME280;4931;44.874;-1.092;2024-01-30T07:55:08;102963.03;;;7.98;100.00
9784;BME280;4931;44.874;-1.092;2024-01-30T07:57:34;102958.19;;;7.87;100.00
9784;BME280;4931;44.874;-1.092;2024-01-30T08:00:00;102952.28;;;7.76;100.00
9784;BME280;4931;44.874;-1.092;2024-01-30T08:02:26;102962.19;;;7.77;100.00
9784;BME280;4931;44.874;-1.092;2024-01-30T08:04:51;102967.00;;;7.75;100.00
9784;BME280;4931;44.874;-1.092;2024-01-30T08:07:17;102963.84;;;7.78;100.00
9784;BME280;4931;44.874;-1.092;2024-01-30T08:09:47;102957.34;;;7.79;100.00
9784;BME280;4931;44.874;-1.092;2024-01-30T08:12:12;102967.44;;;7.86;100.00
9784;BME280;4931;44.874;-1.092;2024-01-30T08:14:38;102964.94;;;7.91;100.00
9784;BME280;4931;44.874;-1.092;2024-01-30T08:17:05;102960.06;;;7.93;100.00
9784;BME280;4931;44.874;-1.092;2024-01-30T08:19:30;102968.09;;;8.01;100.00
9784;BME280;4931;44.874;-1.092;2024-01-30T08:21:55;102958.63;;;8.04;100.00
9784;BME280;4931;44.874;-1.092;2024-01-30T08:24:21;102955.69;;;8.05;100.00
9784;BME280;4931;44.874;-1.092;2024-01-30T08:26:46;102959.25;;;8.12;100.00
9784;BME280;4931;44.874;-1.092;2024-01-30T08:29:12;102961.78;;;8.21;100.00
9784;BME280;4931;44.874;-1.092;2024-01-30T08:31:37;102964.50;;;8.14;100.00
9784;BME280;4931;44.874;-1.092;2024-01-30T08:34:03;102972.53;;;8.29;100.00
9784;BME280;4931;44.874;-1.092;2024-01-30T08:36:28;102974.59;;;8.34;100.00
9784;BME280;4931;44.874;-1.092;2024-01-30T08:38:53;102994.81;;;8.26;100.00
9784;BME280;4931;44.874;-1.092;2024-01-30T08:41:19;103005.13;;;8.37;100.00
9784;BME280;4931;44.874;-1.092;2024-01-30T08:43:45;103005.78;;;8.53;100.00
9784;BME280;4931;44.874;-1.092;2024-01-30T08:46:11;103013.13;;;8.52;100.00
9784;BME280;4931;44.874;-1.092;2024-01-30T08:48:36;103020.50;;;8.65;100.00
9784;BME280;4931;44.874;-1.092;2024-01-30T08:51:02;103036.72;;;8.87;100.00
9784;BME280;4931;44.874;-1.092;2024-01-30T08:53:27;103038.41;;;8.88;100.00
9784;BME280;4931;44.874;-1.092;2024-01-30T08:55:53;103027.63;;;8.93;100.00
9784;BME280;4931;44.874;-1.092;2024-01-30T08:58:18;103035.63;;;9.01;100.00
9784;BME280;4931;44.874;-1.092;2024-01-30T09:00:44;103036.03;;;9.11;100.00
9784;BME280;4931;44.874;-1.092;2024-01-30T09:03:09;103030.94;;;9.15;100.00
9784;BME280;4931;44.874;-1.092;2024-01-30T09:05:35;103044.44;;;9.17;100.00
9784;BME280;4931;44.874;-1.092;2024-01-30T09:08:00;103049.03;;;9.29;100.00
9784;BME280;4931;44.874;-1.092;2024-01-30T09:10:26;103050.88;;;9.42;100.00
9784;BME280;4931;44.874;-1.092;2024-01-30T09:12:52;103044.44;;;9.69;100.00
9784;BME280;4931;44.874;-1.092;2024-01-30T09:15:17;103037.94;;;9.63;100.00
9784;BME280;4931;44.874;-1.092;2024-01-30T09:17:44;103032.84;;;9.73;100.00
9784;BME280;4931;44.874;-1.092;2024-01-30T09:20:10;103032.03;;;9.66;100.00
9784;BME280;4931;44.874;-1.092;2024-01-30T09:22:35;103034.13;;;9.71;100.00
9784;BME280;4931;44.874;-1.092;2024-01-30T09:25:01;103035.88;;;9.97;100.00
9784;BME280;4931;44.874;-1.092;2024-01-30T09:27:26;103032.88;;;10.05;100.00
9784;BME280;4931;44.874;-1.092;2024-01-30T09:29:51;103026.59;;;9.91;100.00
9784;BME280;4931;44.874;-1.092;2024-01-30T09:32:18;103039.22;;;9.99;100.00
9784;BME280;4931;44.874;-1.092;2024-01-30T09:34:43;103024.44;;;10.00;100.00
9784;BME280;4931;44.874;-1.092;2024-01-30T09:37:09;103031.63;;;10.01;100.00
9784;BME280;4931;44.874;-1.092;2024-01-30T09:39:34;103024.13;;;10.22;100.00
9784;BME280;4931;44.874;-1.092;2024-01-30T09:44:43;103014.09;;;10.34;100.00
9784;BME280;4931;44.874;-1.092;2024-01-30T09:47:09;103009.53;;;10.53;100.00
9784;BME280;4931;44.874;-1.092;2024-01-30T09:49:35;102995.53;;;10.61;100.00
9784;BME280;4931;44.874;-1.092;2024-01-30T09:52:02;102990.47;;;10.84;100.00
9784;BME280;4931;44.874;-1.092;2024-01-30T09:54:30;102988.78;;;11.01;100.00
9784;BME280;4931;44.874;-1.092;2024-01-30T09:56:57;102976.88;;;11.07;100.00
9784;BME280;4931;44.874;-1.092;2024-01-30T09:59:22;102977.94;;;11.25;100.00
9784;BME280;4931;44.874;-1.092;2024-01-30T10:01:50;102972.75;;;11.35;100.00
9784;BME280;4931;44.874;-1.092;2024-01-30T10:04:15;102960.78;;;11.29;100.00
9784;BME280;4931;44.874;-1.092;2024-01-30T10:06:41;102971.63;;;11.55;100.00
9784;BME280;4931;44.874;-1.092;2024-01-30T10:09:07;102966.44;;;11.65;100.00
9784;BME280;4931;44.874;-1.092;2024-01-30T10:11:33;102968.00;;;12.03;100.00
9784;BME280;4931;44.874;-1.092;2024-01-30T10:14:00;102969.69;;;12.04;100.00
9784;BME280;4931;44.874;-1.092;2024-01-30T10:16:25;102970.91;;;12.32;100.00
9784;BME280;4931;44.874;-1.092;2024-01-30T10:18:51;102961.59;;;12.57;100.00
9784;BME280;4931;44.874;-1.092;2024-01-30T10:21:16;102959.19;;;12.49;100.00
9784;BME280;4931;44.874;-1.092;2024-01-30T10:23:43;102958.47;;;12.65;100.00
9784;BME280;4931;44.874;-1.092;2024-01-30T10:26:09;102947.69;;;12.75;100.00
9784;BME280;4931;44.874;-1.092;2024-01-30T10:28:35;102954.16;;;12.69;100.00
9784;BME280;4931;44.874;-1.092;2024-01-30T10:31:00;102946.47;;;12.95;100.00
9784;BME280;4931;44.874;-1.092;2024-01-30T10:33:27;102948.69;;;13.10;100.00
9784;BME280;4931;44.874;-1.092;2024-01-30T10:36:00;102952.25;;;13.22;100.00
9784;BME280;4931;44.874;-1.092;2024-01-30T10:38:28;102936.06;;;13.26;100.00
9784;BME280;4931;44.874;-1.092;2024-01-30T10:40:56;102934.31;;;13.49;100.00
9784;BME280;4931;44.874;-1.092;2024-01-30T10:43:22;102931.53;;;13.77;100.00
9784;BME280;4931;44.874;-1.092;2024-01-30T10:45:49;102926.09;;;13.83;100.00
9784;BME280;4931;44.874;-1.092;2024-01-30T10:48:18;102932.88;;;13.92;100.00
9784;BME280;4931;44.874;-1.092;2024-01-30T10:50:50;102937.59;;;14.08;100.00
9784;BME280;4931;44.874;-1.092;2024-01-30T10:53:17;102918.53;;;14.24;100.00
9784;BME280;4931;44.874;-1.092;2024-01-30T10:55:45;102919.84;;;14.38;100.00
9784;BME280;4931;44.874;-1.092;2024-01-30T10:58:12;102912.88;;;14.53;100.00
9784;BME280;4931;44.874;-1.092;2024-01-30T11:00:38;102924.19;;;14.51;100.00
9784;BME280;4931;44.874;-1.092;2024-01-30T11:03:04;102914.47;;;14.49;100.00
9784;BME280;4931;44.874;-1.092;2024-01-30T11:05:30;102917.31;;;14.54;100.00
9784;BME280;4931;44.874;-1.092;2024-01-30T11:07:55;102916.88;;;14.62;100.00
9784;BME280;4931;44.874;-1.092;2024-01-30T11:10:24;102916.28;;;14.60;100.00
9784;BME280;4931;44.874;-1.092;2024-01-30T11:12:50;102911.06;;;14.81;100.00
9784;BME280;4931;44.874;-1.092;2024-01-30T11:15:16;102908.69;;;14.89;100.00
9784;BME280;4931;44.874;-1.092;2024-01-30T11:20:34;102900.00;;;15.25;100.00
9784;BME280;4931;44.874;-1.092;2024-01-30T11:23:01;102894.81;;;15.61;100.00
9784;BME280;4931;44.874;-1.092;2024-01-30T11:25:32;102894.50;;;15.57;100.00
9784;BME280;4931;44.874;-1.092;2024-01-30T11:27:58;102891.00;;;15.67;100.00
9784;BME280;4931;44.874;-1.092;2024-01-30T11:30:28;102888.19;;;15.89;100.00
9784;BME280;4931;44.874;-1.092;2024-01-30T11:38:03;102876.34;;;15.99;100.00
9784;BME280;4931;44.874;-1.092;2024-01-30T11:40:30;102878.75;;;16.28;100.00
9784;BME280;4931;44.874;-1.092;2024-01-30T11:42:58;102880.97;;;16.26;100.00
9784;BME280;4931;44.874;-1.092;2024-01-30T11:45:23;102878.16;;;16.21;100.00
9784;BME280;4931;44.874;-1.092;2024-01-30T11:47:49;102872.66;;;16.26;100.00
9784;BME280;4931;44.874;-1.092;2024-01-30T11:50:15;102872.19;;;16.39;100.00
9784;BME280;4931;44.874;-1.092;2024-01-30T11:52:40;102870.41;;;16.23;100.00
9784;BME280;4931;44.874;-1.092;2024-01-30T11:55:07;102869.47;;;16.50;100.00
9784;BME280;4931;44.874;-1.092;2024-01-30T11:57:33;102858.78;;;16.74;100.00
9784;BME280;4931;44.874;-1.092;2024-01-30T12:00:01;102856.28;;;16.72;100.00
9784;BME280;4931;44.874;-1.092;2024-01-30T12:02:26;102854.19;;;17.00;100.00
9784;BME280;4931;44.874;-1.092;2024-01-30T12:04:52;102856.22;;;16.62;100.00
9784;BME280;4931;44.874;-1.092;2024-01-30T12:07:17;102861.38;;;16.96;100.00
9784;BME280;4931;44.874;-1.092;2024-01-30T12:09:52;102847.59;;;17.17;100.00
9784;BME280;4931;44.874;-1.092;2024-01-30T12:12:17;102854.78;;;17.13;100.00
9784;BME280;4931;44.874;-1.092;2024-01-30T12:14:43;102845.78;;;16.80;100.00
9784;BME280;4931;44.874;-1.092;2024-01-30T12:17:08;102844.22;;;17.15;100.00
9784;BME280;4931;44.874;-1.092;2024-01-30T12:19:34;102841.50;;;17.35;100.00
9784;BME280;4931;44.874;-1.092;2024-01-30T12:22:00;102848.44;;;17.33;100.00
9784;BME280;4931;44.874;-1.092;2024-01-30T12:24:26;102838.19;;;17.59;100.00
9784;BME280;4931;44.874;-1.092;2024-01-30T12:26:52;102839.25;;;17.17;100.00
9784;BME280;4931;44.874;-1.092;2024-01-30T12:29:19;102833.59;;;16.86;100.00
9784;BME280;4931;44.874;-1.092;2024-01-30T12:31:45;102832.63;;;17.33;100.00
9784;BME280;4931;44.874;-1.092;2024-01-30T12:34:14;102827.91;;;17.65;100.00
9784;BME280;4931;44.874;-1.092;2024-01-30T12:36:40;102832.63;;;17.85;100.00
9784;BME280;4931;44.874;-1.092;2024-01-30T12:39:06;102818.75;;;18.00;100.00
9784;BME280;4931;44.874;-1.092;2024-01-30T12:41:31;102821.81;;;17.57;100.00
9784;BME280;4931;44.874;-1.092;2024-01-30T12:43:57;102817.66;;;17.65;100.00
9784;BME280;4931;44.874;-1.092;2024-01-30T12:46:29;102814.31;;;17.84;100.00
9784;BME280;4931;44.874;-1.092;2024-01-30T12:48:54;102817.38;;;17.82;100.00
9784;BME280;4931;44.874;-1.092;2024-01-30T12:51:20;102820.44;;;17.55;100.00
9784;BME280;4931;44.874;-1.092;2024-01-30T12:53:45;102827.91;;;17.65;100.00
9784;BME280;4931;44.874;-1.092;2024-01-30T12:56:13;102822.38;;;17.49;100.00
9784;BME280;4931;44.874;-1.092;2024-01-30T12:58:39;102822.09;;;17.35;100.00